sensor_id;sensor_type;location;lat;lon;timestamp;P1;durP1;ratioP1;P2;durP2;ratioP2
10890;SDS011;5498;50.928;11.598;2022-12-05T00:00:11;58.67;;;23.03;;
10890;SDS011;5498;50.928;11.598;2022-12-05T00:03:15;70.47;;;23.07;;
10890;SDS011;5498;50.928;11.598;2022-12-05T00:06:17;67.43;;;21.93;;
10890;SDS011;5498;50.928;11.598;2022-12-05T00:09:20;57.43;;;23.70;;
10890;SDS011;5498;50.928;11.598;2022-12-05T00:12:24;60.87;;;22.40;;
10890;SDS011;5498;50.928;11.598;2022-12-05T00:15:26;72.70;;;23.23;;
10890;SDS011;5498;50.928;11.598;2022-12-05T00:18:28;72.63;;;22.87;;
10890;SDS011;5498;50.928;11.598;2022-12-05T00:21:30;65.83;;;22.20;;
10890;SDS011;5498;50.928;11.598;2022-12-05T00:24:37;62.77;;;22.13;;
10890;SDS011;5498;50.928;11.598;2022-12-05T00:27:41;62.27;;;21.27;;
10890;SDS011;5498;50.928;11.598;2022-12-05T00:30:43;59.10;;;23.60;;
10890;SDS011;5498;50.928;11.598;2022-12-05T00:33:45;59.67;;;22.93;;
10890;SDS011;5498;50.928;11.598;2022-12-05T00:36:48;63.93;;;22.23;;
10890;SDS011;5498;50.928;11.598;2022-12-05T00:39:50;56.80;;;21.03;;
10890;SDS011;5498;50.928;11.598;2022-12-05T00:42:54;64.77;;;22.93;;
10890;SDS011;5498;50.928;11.598;2022-12-05T00:45:59;61.27;;;21.20;;
10890;SDS011;5498;50.928;11.598;2022-12-05T00:49:03;57.23;;;21.10;;
10890;SDS011;5498;50.928;11.598;2022-12-05T00:52:07;48.40;;;19.80;;
10890;SDS011;5498;50.928;11.598;2022-12-05T00:55:09;57.23;;;22.20;;
10890;SDS011;5498;50.928;11.598;2022-12-05T00:58:12;53.77;;;21.20;;
10890;SDS011;5498;50.928;11.598;2022-12-05T01:01:15;58.97;;;22.43;;
10890;SDS011;5498;50.928;11.598;2022-12-05T01:04:21;56.47;;;21.47;;
10890;SDS011;5498;50.928;11.598;2022-12-05T01:07:25;48.07;;;20.00;;
10890;SDS011;5498;50.928;11.598;2022-12-05T01:10:27;50.00;;;20.73;;
10890;SDS011;5498;50.928;11.598;2022-12-05T01:13:30;61.97;;;22.47;;
10890;SDS011;5498;50.928;11.598;2022-12-05T01:16:34;52.17;;;21.07;;
10890;SDS011;5498;50.928;11.598;2022-12-05T01:19:38;60.60;;;21.83;;
10890;SDS011;5498;50.928;11.598;2022-12-05T01:22:40;46.27;;;19.83;;
10890;SDS011;5498;50.928;11.598;2022-12-05T01:25:43;53.47;;;20.70;;
10890;SDS011;5498;50.928;11.598;2022-12-05T01:28:50;44.73;;;19.63;;
10890;SDS011;5498;50.928;11.598;2022-12-05T01:31:53;46.13;;;19.17;;
10890;SDS011;5498;50.928;11.598;2022-12-05T01:34:57;51.93;;;20.10;;
10890;SDS011;5498;50.928;11.598;2022-12-05T01:38:00;48.10;;;19.73;;
10890;SDS011;5498;50.928;11.598;2022-12-05T01:41:03;51.50;;;19.87;;
10890;SDS011;5498;50.928;11.598;2022-12-05T01:48:06;46.17;;;20.17;;
10890;SDS011;5498;50.928;11.598;2022-12-05T01:51:13;52.10;;;20.97;;
10890;SDS011;5498;50.928;11.598;2022-12-05T01:54:15;41.30;;;18.77;;
10890;SDS011;5498;50.928;11.598;2022-12-05T01:57:19;45.57;;;18.87;;
10890;SDS011;5498;50.928;11.598;2022-12-05T02:00:22;49.80;;;19.47;;
10890;SDS011;5498;50.928;11.598;2022-12-05T02:03:24;38.30;;;17.77;;
10890;SDS011;5498;50.928;11.598;2022-12-05T02:06:27;51.27;;;20.10;;
10890;SDS011;5498;50.928;11.598;2022-12-05T02:09:29;43.13;;;17.97;;
10890;SDS011;5498;50.928;11.598;2022-12-05T02:12:31;46.07;;;18.07;;
10890;SDS011;5498;50.928;11.598;2022-12-05T02:15:38;36.20;;;16.67;;
10890;SDS011;5498;50.928;11.598;2022-12-05T02:18:47;38.80;;;16.83;;
10890;SDS011;5498;50.928;11.598;2022-12-05T02:30:02;45.27;;;17.03;;
10890;SDS011;5498;50.928;11.598;2022-12-05T02:33:10;32.73;;;15.37;;
10890;SDS011;5498;50.928;11.598;2022-12-05T02:36:22;34.70;;;14.93;;
10890;SDS011;5498;50.928;11.598;2022-12-05T02:39:33;31.73;;;15.83;;
10890;SDS011;5498;50.928;11.598;2022-12-05T02:42:42;36.83;;;15.20;;
10890;SDS011;5498;50.928;11.598;2022-12-05T02:45:53;34.03;;;15.77;;
10890;SDS011;5498;50.928;11.598;2022-12-05T02:49:00;37.43;;;15.90;;
10890;SDS011;5498;50.928;11.598;2022-12-05T02:52:09;38.90;;;15.90;;
10890;SDS011;5498;50.928;11.598;2022-12-05T02:55:14;32.00;;;16.27;;
10890;SDS011;5498;50.928;11.598;2022-12-05T02:58:20;33.23;;;15.70;;
10890;SDS011;5498;50.928;11.598;2022-12-05T03:01:29;29.23;;;14.63;;
10890;SDS011;5498;50.928;11.598;2022-12-05T03:04:32;35.73;;;15.67;;
10890;SDS011;5498;50.928;11.598;2022-12-05T03:07:35;33.47;;;14.80;;
10890;SDS011;5498;50.928;11.598;2022-12-05T03:10:39;29.50;;;13.93;;
10890;SDS011;5498;50.928;11.598;2022-12-05T03:13:44;26.10;;;14.90;;
10890;SDS011;5498;50.928;11.598;2022-12-05T03:16:53;32.93;;;15.67;;
10890;SDS011;5498;50.928;11.598;2022-12-05T03:20:02;32.90;;;14.20;;
10890;SDS011;5498;50.928;11.598;2022-12-05T03:23:09;34.87;;;15.03;;
10890;SDS011;5498;50.928;11.598;2022-12-05T03:26:17;29.60;;;14.80;;
10890;SDS011;5498;50.928;11.598;2022-12-05T03:29:32;34.50;;;15.63;;
10890;SDS011;5498;50.928;11.598;2022-12-05T03:32:41;31.87;;;13.97;;
10890;SDS011;5498;50.928;11.598;2022-12-05T03:35:53;25.70;;;13.03;;
10890;SDS011;5498;50.928;11.598;2022-12-05T03:39:04;29.70;;;13.67;;
10890;SDS011;5498;50.928;11.598;2022-12-05T03:42:12;30.97;;;14.17;;
10890;SDS011;5498;50.928;11.598;2022-12-05T03:45:19;28.93;;;13.33;;
10890;SDS011;5498;50.928;11.598;2022-12-05T03:48:30;30.27;;;14.13;;
10890;SDS011;5498;50.928;11.598;2022-12-05T03:51:40;30.73;;;14.10;;
10890;SDS011;5498;50.928;11.598;2022-12-05T03:54:48;25.70;;;12.80;;
10890;SDS011;5498;50.928;11.598;2022-12-05T03:57:56;26.73;;;13.07;;
10890;SDS011;5498;50.928;11.598;2022-12-05T04:01:01;29.17;;;13.80;;
10890;SDS011;5498;50.928;11.598;2022-12-05T04:04:10;30.93;;;12.63;;
10890;SDS011;5498;50.928;11.598;2022-12-05T04:07:16;30.90;;;14.03;;
10890;SDS011;5498;50.928;11.598;2022-12-05T04:10:22;29.10;;;13.00;;
10890;SDS011;5498;50.928;11.598;2022-12-05T04:13:31;26.97;;;13.43;;
10890;SDS011;5498;50.928;11.598;2022-12-05T04:16:39;21.17;;;12.57;;
10890;SDS011;5498;50.928;11.598;2022-12-05T04:20:05;29.27;;;12.77;;
10890;SDS011;5498;50.928;11.598;2022-12-05T04:23:31;23.53;;;11.77;;
10890;SDS011;5498;50.928;11.598;2022-12-05T04:26:35;30.40;;;13.17;;
10890;SDS011;5498;50.928;11.598;2022-12-05T04:29:44;23.63;;;12.33;;
10890;SDS011;5498;50.928;11.598;2022-12-05T04:32:59;26.80;;;13.83;;
10890;SDS011;5498;50.928;11.598;2022-12-05T04:36:08;26.43;;;11.93;;
10890;SDS011;5498;50.928;11.598;2022-12-05T04:39:16;23.17;;;10.80;;
10890;SDS011;5498;50.928;11.598;2022-12-05T04:42:22;25.13;;;11.77;;
10890;SDS011;5498;50.928;11.598;2022-12-05T04:45:29;27.47;;;12.07;;
10890;SDS011;5498;50.928;11.598;2022-12-05T04:48:33;21.13;;;11.10;;
10890;SDS011;5498;50.928;11.598;2022-12-05T04:51:40;22.10;;;11.97;;
10890;SDS011;5498;50.928;11.598;2022-12-05T04:54:44;27.67;;;12.03;;
10890;SDS011;5498;50.928;11.598;2022-12-05T04:57:51;22.33;;;11.97;;
10890;SDS011;5498;50.928;11.598;2022-12-05T05:01:03;22.87;;;11.40;;
10890;SDS011;5498;50.928;11.598;2022-12-05T05:04:10;26.10;;;12.07;;
10890;SDS011;5498;50.928;11.598;2022-12-05T05:07:18;22.43;;;11.00;;
10890;SDS011;5498;50.928;11.598;2022-12-05T05:10:23;20.57;;;11.30;;
10890;SDS011;5498;50.928;11.598;2022-12-05T05:13:31;19.60;;;11.10;;
10890;SDS011;5498;50.928;11.598;2022-12-05T05:16:34;24.27;;;11.40;;
10890;SDS011;5498;50.928;11.598;2022-12-05T05:19:38;26.47;;;11.30;;
10890;SDS011;5498;50.928;11.598;2022-12-05T05:22:42;21.23;;;10.90;;
10890;SDS011;5498;50.928;11.598;2022-12-05T05:25:44;22.60;;;11.87;;
10890;SDS011;5498;50.928;11.598;2022-12-05T05:28:46;23.63;;;10.90;;
10890;SDS011;5498;50.928;11.598;2022-12-05T05:31:49;24.97;;;11.87;;
10890;SDS011;5498;50.928;11.598;2022-12-05T05:34:51;27.50;;;12.40;;
10890;SDS011;5498;50.928;11.598;2022-12-05T05:37:54;24.63;;;12.97;;
10890;SDS011;5498;50.928;11.598;2022-12-05T05:40:56;20.87;;;11.17;;
10890;SDS011;5498;50.928;11.598;2022-12-05T05:43:58;22.00;;;11.13;;
10890;SDS011;5498;50.928;11.598;2022-12-05T05:47:01;26.13;;;12.87;;
10890;SDS011;5498;50.928;11.598;2022-12-05T05:50:04;27.93;;;12.43;;
10890;SDS011;5498;50.928;11.598;2022-12-05T05:53:09;22.23;;;12.67;;
10890;SDS011;5498;50.928;11.598;2022-12-05T05:56:12;19.80;;;11.10;;
10890;SDS011;5498;50.928;11.598;2022-12-05T05:59:16;19.53;;;10.60;;
10890;SDS011;5498;50.928;11.598;2022-12-05T06:02:18;23.37;;;12.60;;
10890;SDS011;5498;50.928;11.598;2022-12-05T06:05:20;26.07;;;12.40;;
10890;SDS011;5498;50.928;11.598;2022-12-05T06:08:23;20.63;;;11.13;;
10890;SDS011;5498;50.928;11.598;2022-12-05T06:11:26;26.33;;;10.90;;
10890;SDS011;5498;50.928;11.598;2022-12-05T06:14:28;22.77;;;11.47;;
10890;SDS011;5498;50.928;11.598;2022-12-05T06:17:30;23.47;;;11.20;;
10890;SDS011;5498;50.928;11.598;2022-12-05T06:20:32;24.13;;;11.80;;
10890;SDS011;5498;50.928;11.598;2022-12-05T06:23:36;20.70;;;12.23;;
10890;SDS011;5498;50.928;11.598;2022-12-05T06:26:42;19.37;;;11.07;;
10890;SDS011;5498;50.928;11.598;2022-12-05T06:29:44;25.10;;;12.23;;
10890;SDS011;5498;50.928;11.598;2022-12-05T06:32:46;27.93;;;12.10;;
10890;SDS011;5498;50.928;11.598;2022-12-05T06:35:56;27.03;;;12.17;;
10890;SDS011;5498;50.928;11.598;2022-12-05T06:39:04;26.00;;;12.07;;
10890;SDS011;5498;50.928;11.598;2022-12-05T06:42:06;23.93;;;11.93;;
10890;SDS011;5498;50.928;11.598;2022-12-05T06:45:09;21.53;;;11.17;;
10890;SDS011;5498;50.928;11.598;2022-12-05T06:48:11;25.73;;;11.27;;
10890;SDS011;5498;50.928;11.598;2022-12-05T06:51:14;28.23;;;13.23;;
10890;SDS011;5498;50.928;11.598;2022-12-05T06:54:19;24.30;;;12.47;;
10890;SDS011;5498;50.928;11.598;2022-12-05T06:57:21;24.50;;;12.53;;
10890;SDS011;5498;50.928;11.598;2022-12-05T07:00:23;25.07;;;12.67;;
10890;SDS011;5498;50.928;11.598;2022-12-05T07:03:43;23.70;;;11.67;;
10890;SDS011;5498;50.928;11.598;2022-12-05T07:06:47;22.07;;;11.97;;
10890;SDS011;5498;50.928;11.598;2022-12-05T07:09:52;21.97;;;12.60;;
10890;SDS011;5498;50.928;11.598;2022-12-05T07:12:54;23.87;;;11.33;;
10890;SDS011;5498;50.928;11.598;2022-12-05T07:15:57;24.27;;;11.63;;
10890;SDS011;5498;50.928;11.598;2022-12-05T07:18:59;21.93;;;12.10;;
10890;SDS011;5498;50.928;11.598;2022-12-05T07:22:01;24.30;;;11.40;;
10890;SDS011;5498;50.928;11.598;2022-12-05T07:25:06;25.80;;;12.80;;
10890;SDS011;5498;50.928;11.598;2022-12-05T07:28:08;26.87;;;12.10;;
10890;SDS011;5498;50.928;11.598;2022-12-05T07:31:15;24.27;;;12.00;;
10890;SDS011;5498;50.928;11.598;2022-12-05T07:34:21;23.33;;;12.33;;
10890;SDS011;5498;50.928;11.598;2022-12-05T07:37:23;23.20;;;12.27;;
10890;SDS011;5498;50.928;11.598;2022-12-05T07:40:26;24.03;;;12.27;;
10890;SDS011;5498;50.928;11.598;2022-12-05T07:43:28;28.40;;;12.07;;
10890;SDS011;5498;50.928;11.598;2022-12-05T07:46:30;24.63;;;12.87;;
10890;SDS011;5498;50.928;11.598;2022-12-05T07:49:32;23.27;;;11.90;;
10890;SDS011;5498;50.928;11.598;2022-12-05T07:52:36;28.83;;;13.30;;
10890;SDS011;5498;50.928;11.598;2022-12-05T07:55:39;23.10;;;12.00;;
10890;SDS011;5498;50.928;11.598;2022-12-05T07:58:41;27.20;;;12.90;;
10890;SDS011;5498;50.928;11.598;2022-12-05T08:01:45;29.67;;;12.87;;
10890;SDS011;5498;50.928;11.598;2022-12-05T08:04:47;26.00;;;12.67;;
10890;SDS011;5498;50.928;11.598;2022-12-05T08:07:49;23.83;;;13.43;;
10890;SDS011;5498;50.928;11.598;2022-12-05T08:10:53;29.67;;;13.23;;
10890;SDS011;5498;50.928;11.598;2022-12-05T08:13:55;25.80;;;11.67;;
10890;SDS011;5498;50.928;11.598;2022-12-05T08:16:58;23.10;;;11.80;;
10890;SDS011;5498;50.928;11.598;2022-12-05T08:20:00;21.67;;;12.30;;
10890;SDS011;5498;50.928;11.598;2022-12-05T08:23:02;25.03;;;11.93;;
10890;SDS011;5498;50.928;11.598;2022-12-05T08:26:06;22.13;;;12.90;;
10890;SDS011;5498;50.928;11.598;2022-12-05T08:29:12;28.50;;;12.67;;
10890;SDS011;5498;50.928;11.598;2022-12-05T08:32:15;28.60;;;12.53;;
10890;SDS011;5498;50.928;11.598;2022-12-05T08:35:17;27.30;;;12.93;;
10890;SDS011;5498;50.928;11.598;2022-12-05T08:38:19;29.37;;;13.87;;
10890;SDS011;5498;50.928;11.598;2022-12-05T08:41:23;23.97;;;12.17;;
10890;SDS011;5498;50.928;11.598;2022-12-05T08:44:27;30.20;;;13.10;;
10890;SDS011;5498;50.928;11.598;2022-12-05T08:47:30;28.37;;;12.57;;
10890;SDS011;5498;50.928;11.598;2022-12-05T08:50:33;27.77;;;13.97;;
10890;SDS011;5498;50.928;11.598;2022-12-05T08:53:35;25.57;;;13.40;;
10890;SDS011;5498;50.928;11.598;2022-12-05T08:56:40;35.67;;;14.70;;
10890;SDS011;5498;50.928;11.598;2022-12-05T08:59:42;28.13;;;14.43;;
10890;SDS011;5498;50.928;11.598;2022-12-05T09:02:44;33.50;;;14.40;;
10890;SDS011;5498;50.928;11.598;2022-12-05T09:05:51;36.40;;;17.87;;
10890;SDS011;5498;50.928;11.598;2022-12-05T09:08:53;25.40;;;12.70;;
10890;SDS011;5498;50.928;11.598;2022-12-05T09:11:58;31.53;;;13.53;;
10890;SDS011;5498;50.928;11.598;2022-12-05T09:15:01;27.03;;;12.83;;
10890;SDS011;5498;50.928;11.598;2022-12-05T09:18:03;26.87;;;12.40;;
10890;SDS011;5498;50.928;11.598;2022-12-05T09:21:06;26.73;;;13.53;;
10890;SDS011;5498;50.928;11.598;2022-12-05T09:24:08;26.60;;;12.60;;
10890;SDS011;5498;50.928;11.598;2022-12-05T09:27:13;29.23;;;12.97;;
10890;SDS011;5498;50.928;11.598;2022-12-05T09:30:15;25.77;;;12.53;;
10890;SDS011;5498;50.928;11.598;2022-12-05T09:33:17;24.77;;;12.40;;
10890;SDS011;5498;50.928;11.598;2022-12-05T09:36:20;22.90;;;12.30;;
10890;SDS011;5498;50.928;11.598;2022-12-05T09:39:24;25.83;;;12.60;;
10890;SDS011;5498;50.928;11.598;2022-12-05T09:42:39;23.93;;;13.33;;
10890;SDS011;5498;50.928;11.598;2022-12-05T09:45:58;28.40;;;13.20;;
10890;SDS011;5498;50.928;11.598;2022-12-05T09:49:08;23.80;;;11.90;;
10890;SDS011;5498;50.928;11.598;2022-12-05T09:52:14;25.93;;;13.00;;
10890;SDS011;5498;50.928;11.598;2022-12-05T09:55:25;35.37;;;12.93;;
10890;SDS011;5498;50.928;11.598;2022-12-05T09:58:39;19.63;;;11.87;;
10890;SDS011;5498;50.928;11.598;2022-12-05T10:01:45;21.37;;;10.90;;
10890;SDS011;5498;50.928;11.598;2022-12-05T10:04:57;22.97;;;11.93;;
10890;SDS011;5498;50.928;11.598;2022-12-05T10:08:06;25.13;;;11.43;;
10890;SDS011;5498;50.928;11.598;2022-12-05T10:11:17;22.70;;;12.00;;
10890;SDS011;5498;50.928;11.598;2022-12-05T10:14:31;24.77;;;11.70;;
10890;SDS011;5498;50.928;11.598;2022-12-05T10:17:48;18.30;;;10.30;;
10890;SDS011;5498;50.928;11.598;2022-12-05T10:20:57;25.20;;;11.97;;
10890;SDS011;5498;50.928;11.598;2022-12-05T10:24:05;22.60;;;11.43;;
10890;SDS011;5498;50.928;11.598;2022-12-05T10:27:17;27.23;;;13.00;;
10890;SDS011;5498;50.928;11.598;2022-12-05T10:30:24;20.90;;;10.40;;
10890;SDS011;5498;50.928;11.598;2022-12-05T10:33:30;21.00;;;11.53;;
10890;SDS011;5498;50.928;11.598;2022-12-05T10:36:52;18.67;;;11.27;;
10890;SDS011;5498;50.928;11.598;2022-12-05T10:39:57;19.77;;;10.93;;
10890;SDS011;5498;50.928;11.598;2022-12-05T10:42:59;23.67;;;11.27;;
10890;SDS011;5498;50.928;11.598;2022-12-05T10:46:03;22.20;;;10.70;;
10890;SDS011;5498;50.928;11.598;2022-12-05T10:49:07;21.23;;;10.90;;
10890;SDS011;5498;50.928;11.598;2022-12-05T10:52:12;21.40;;;10.73;;
10890;SDS011;5498;50.928;11.598;2022-12-05T10:55:15;21.40;;;11.53;;
10890;SDS011;5498;50.928;11.598;2022-12-05T10:58:19;22.23;;;12.43;;
10890;SDS011;5498;50.928;11.598;2022-12-05T11:01:27;22.27;;;11.67;;
10890;SDS011;5498;50.928;11.598;2022-12-05T11:04:30;20.10;;;11.30;;
10890;SDS011;5498;50.928;11.598;2022-12-05T11:07:44;18.53;;;10.77;;
10890;SDS011;5498;50.928;11.598;2022-12-05T11:10:48;19.00;;;10.37;;
10890;SDS011;5498;50.928;11.598;2022-12-05T11:14:03;20.67;;;11.70;;
10890;SDS011;5498;50.928;11.598;2022-12-05T11:17:09;23.17;;;11.97;;
10890;SDS011;5498;50.928;11.598;2022-12-05T11:20:33;18.53;;;11.43;;
10890;SDS011;5498;50.928;11.598;2022-12-05T11:23:40;20.00;;;11.20;;
10890;SDS011;5498;50.928;11.598;2022-12-05T11:26:42;18.63;;;10.93;;
10890;SDS011;5498;50.928;11.598;2022-12-05T11:29:52;18.70;;;11.70;;
10890;SDS011;5498;50.928;11.598;2022-12-05T11:33:17;19.70;;;11.83;;
10890;SDS011;5498;50.928;11.598;2022-12-05T11:36:22;22.53;;;11.37;;
10890;SDS011;5498;50.928;11.598;2022-12-05T11:39:36;20.77;;;11.97;;
10890;SDS011;5498;50.928;11.598;2022-12-05T11:42:39;22.77;;;12.20;;
10890;SDS011;5498;50.928;11.598;2022-12-05T11:46:01;19.67;;;10.83;;
10890;SDS011;5498;50.928;11.598;2022-12-05T11:49:18;19.30;;;13.00;;
10890;SDS011;5498;50.928;11.598;2022-12-05T11:52:50;18.57;;;11.73;;
10890;SDS011;5498;50.928;11.598;2022-12-05T11:56:03;18.67;;;10.77;;
10890;SDS011;5498;50.928;11.598;2022-12-05T11:59:26;24.00;;;11.37;;
10890;SDS011;5498;50.928;11.598;2022-12-05T12:06:28;17.13;;;11.37;;
10890;SDS011;5498;50.928;11.598;2022-12-05T12:09:38;16.83;;;10.53;;
10890;SDS011;5498;50.928;11.598;2022-12-05T12:12:53;24.93;;;11.70;;
10890;SDS011;5498;50.928;11.598;2022-12-05T12:16:07;18.90;;;10.93;;
10890;SDS011;5498;50.928;11.598;2022-12-05T12:19:34;16.43;;;10.67;;
10890;SDS011;5498;50.928;11.598;2022-12-05T12:23:04;19.30;;;11.20;;
10890;SDS011;5498;50.928;11.598;2022-12-05T12:26:24;16.67;;;10.33;;
10890;SDS011;5498;50.928;11.598;2022-12-05T12:29:42;24.33;;;11.17;;
10890;SDS011;5498;50.928;11.598;2022-12-05T12:32:57;19.67;;;11.23;;
10890;SDS011;5498;50.928;11.598;2022-12-05T12:36:08;24.10;;;10.93;;
10890;SDS011;5498;50.928;11.598;2022-12-05T12:39:21;18.80;;;12.00;;
10890;SDS011;5498;50.928;11.598;2022-12-05T12:42:38;17.40;;;10.07;;
10890;SDS011;5498;50.928;11.598;2022-12-05T12:45:55;19.80;;;10.77;;
10890;SDS011;5498;50.928;11.598;2022-12-05T12:49:17;15.87;;;9.80;;
10890;SDS011;5498;50.928;11.598;2022-12-05T12:52:51;18.40;;;10.83;;
10890;SDS011;5498;50.928;11.598;2022-12-05T12:56:21;17.10;;;10.93;;
10890;SDS011;5498;50.928;11.598;2022-12-05T12:59:45;21.90;;;11.73;;
10890;SDS011;5498;50.928;11.598;2022-12-05T13:03:02;19.67;;;10.43;;
10890;SDS011;5498;50.928;11.598;2022-12-05T13:06:12;16.77;;;10.10;;
10890;SDS011;5498;50.928;11.598;2022-12-05T13:09:20;19.00;;;10.97;;
10890;SDS011;5498;50.928;11.598;2022-12-05T13:12:31;18.67;;;10.53;;
10890;SDS011;5498;50.928;11.598;2022-12-05T13:15:39;18.97;;;10.47;;
10890;SDS011;5498;50.928;11.598;2022-12-05T13:18:46;17.70;;;10.83;;
10890;SDS011;5498;50.928;11.598;2022-12-05T13:21:50;19.20;;;11.47;;
10890;SDS011;5498;50.928;11.598;2022-12-05T13:24:53;18.90;;;11.40;;
10890;SDS011;5498;50.928;11.598;2022-12-05T13:27:57;19.13;;;11.63;;
10890;SDS011;5498;50.928;11.598;2022-12-05T13:31:02;17.10;;;10.00;;
10890;SDS011;5498;50.928;11.598;2022-12-05T13:34:05;18.70;;;11.30;;
10890;SDS011;5498;50.928;11.598;2022-12-05T13:37:43;19.90;;;11.03;;
10890;SDS011;5498;50.928;11.598;2022-12-05T13:41:05;18.63;;;10.90;;
10890;SDS011;5498;50.928;11.598;2022-12-05T13:44:31;19.23;;;12.23;;
10890;SDS011;5498;50.928;11.598;2022-12-05T13:47:39;16.47;;;11.73;;
10890;SDS011;5498;50.928;11.598;2022-12-05T13:50:55;20.33;;;11.23;;
10890;SDS011;5498;50.928;11.598;2022-12-05T13:54:04;20.90;;;11.77;;
10890;SDS011;5498;50.928;11.598;2022-12-05T14:00:55;19.57;;;11.33;;
10890;SDS011;5498;50.928;11.598;2022-12-05T14:04:44;17.77;;;11.27;;
10890;SDS011;5498;50.928;11.598;2022-12-05T14:07:50;19.07;;;10.87;;
10890;SDS011;5498;50.928;11.598;2022-12-05T14:11:07;18.90;;;11.67;;
10890;SDS011;5498;50.928;11.598;2022-12-05T14:14:11;19.90;;;11.10;;
10890;SDS011;5498;50.928;11.598;2022-12-05T14:17:15;20.90;;;12.20;;
10890;SDS011;5498;50.928;11.598;2022-12-05T14:20:19;22.00;;;11.27;;
10890;SDS011;5498;50.928;11.598;2022-12-05T14:23:30;19.03;;;11.13;;
10890;SDS011;5498;50.928;11.598;2022-12-05T14:26:56;20.10;;;11.30;;
10890;SDS011;5498;50.928;11.598;2022-12-05T14:30:15;23.90;;;11.80;;
10890;SDS011;5498;50.928;11.598;2022-12-05T14:33:24;22.20;;;11.97;;
10890;SDS011;5498;50.928;11.598;2022-12-05T14:36:26;20.83;;;11.07;;
10890;SDS011;5498;50.928;11.598;2022-12-05T14:39:31;20.83;;;12.13;;
10890;SDS011;5498;50.928;11.598;2022-12-05T14:42:42;21.90;;;11.90;;
10890;SDS011;5498;50.928;11.598;2022-12-05T14:45:55;20.00;;;12.00;;
10890;SDS011;5498;50.928;11.598;2022-12-05T14:56:38;21.03;;;11.70;;
10890;SDS011;5498;50.928;11.598;2022-12-05T14:59:44;26.37;;;12.80;;
10890;SDS011;5498;50.928;11.598;2022-12-05T15:02:51;22.30;;;12.20;;
10890;SDS011;5498;50.928;11.598;2022-12-05T15:05:57;18.93;;;12.60;;
10890;SDS011;5498;50.928;11.598;2022-12-05T15:09:03;23.43;;;12.43;;
10890;SDS011;5498;50.928;11.598;2022-12-05T15:12:24;24.93;;;12.03;;
10890;SDS011;5498;50.928;11.598;2022-12-05T15:15:30;18.60;;;10.90;;
10890;SDS011;5498;50.928;11.598;2022-12-05T15:18:41;17.50;;;10.87;;
10890;SDS011;5498;50.928;11.598;2022-12-05T15:21:50;20.03;;;11.67;;
10890;SDS011;5498;50.928;11.598;2022-12-05T15:24:57;17.00;;;11.20;;
10890;SDS011;5498;50.928;11.598;2022-12-05T15:28:16;16.70;;;10.43;;
10890;SDS011;5498;50.928;11.598;2022-12-05T15:31:20;18.17;;;11.77;;
10890;SDS011;5498;50.928;11.598;2022-12-05T15:34:24;17.90;;;11.53;;
10890;SDS011;5498;50.928;11.598;2022-12-05T15:37:33;20.80;;;12.37;;
10890;SDS011;5498;50.928;11.598;2022-12-05T15:40:48;17.70;;;10.73;;
10890;SDS011;5498;50.928;11.598;2022-12-05T15:43:53;17.93;;;11.03;;
10890;SDS011;5498;50.928;11.598;2022-12-05T15:46:56;18.83;;;11.40;;
10890;SDS011;5498;50.928;11.598;2022-12-05T15:49:58;20.03;;;10.93;;
10890;SDS011;5498;50.928;11.598;2022-12-05T15:53:02;22.20;;;12.03;;
10890;SDS011;5498;50.928;11.598;2022-12-05T15:56:11;23.10;;;11.77;;
10890;SDS011;5498;50.928;11.598;2022-12-05T15:59:19;16.33;;;10.90;;
10890;SDS011;5498;50.928;11.598;2022-12-05T16:02:26;18.97;;;11.20;;
10890;SDS011;5498;50.928;11.598;2022-12-05T16:05:45;19.57;;;10.73;;
10890;SDS011;5498;50.928;11.598;2022-12-05T16:08:53;19.87;;;11.73;;
10890;SDS011;5498;50.928;11.598;2022-12-05T16:11:56;17.17;;;9.87;;
10890;SDS011;5498;50.928;11.598;2022-12-05T16:15:02;20.90;;;12.07;;
10890;SDS011;5498;50.928;11.598;2022-12-05T16:18:21;26.43;;;14.30;;
10890;SDS011;5498;50.928;11.598;2022-12-05T16:21:28;27.83;;;13.63;;
10890;SDS011;5498;50.928;11.598;2022-12-05T16:24:39;26.57;;;13.77;;
10890;SDS011;5498;50.928;11.598;2022-12-05T16:27:43;24.03;;;13.73;;
10890;SDS011;5498;50.928;11.598;2022-12-05T16:30:58;24.70;;;13.60;;
10890;SDS011;5498;50.928;11.598;2022-12-05T16:34:03;23.10;;;13.63;;
10890;SDS011;5498;50.928;11.598;2022-12-05T16:37:14;21.17;;;13.67;;
10890;SDS011;5498;50.928;11.598;2022-12-05T16:40:21;26.43;;;13.93;;
10890;SDS011;5498;50.928;11.598;2022-12-05T16:43:25;28.10;;;14.07;;
10890;SDS011;5498;50.928;11.598;2022-12-05T16:46:42;30.27;;;17.83;;
10890;SDS011;5498;50.928;11.598;2022-12-05T16:49:45;28.37;;;18.17;;
10890;SDS011;5498;50.928;11.598;2022-12-05T16:52:48;25.37;;;15.50;;
10890;SDS011;5498;50.928;11.598;2022-12-05T16:55:52;28.20;;;16.13;;
10890;SDS011;5498;50.928;11.598;2022-12-05T16:58:55;28.43;;;18.03;;
10890;SDS011;5498;50.928;11.598;2022-12-05T17:02:01;27.77;;;16.37;;
10890;SDS011;5498;50.928;11.598;2022-12-05T17:05:10;26.93;;;15.10;;
10890;SDS011;5498;50.928;11.598;2022-12-05T17:08:14;25.77;;;15.57;;
10890;SDS011;5498;50.928;11.598;2022-12-05T17:11:18;27.63;;;15.90;;
10890;SDS011;5498;50.928;11.598;2022-12-05T17:14:23;28.93;;;14.57;;
10890;SDS011;5498;50.928;11.598;2022-12-05T17:17:25;32.70;;;16.00;;
10890;SDS011;5498;50.928;11.598;2022-12-05T17:20:27;21.50;;;13.77;;
10890;SDS011;5498;50.928;11.598;2022-12-05T17:23:29;25.17;;;14.37;;
10890;SDS011;5498;50.928;11.598;2022-12-05T17:26:33;21.07;;;13.23;;
10890;SDS011;5498;50.928;11.598;2022-12-05T17:29:35;22.70;;;13.40;;
10890;SDS011;5498;50.928;11.598;2022-12-05T17:32:37;25.13;;;14.53;;
10890;SDS011;5498;50.928;11.598;2022-12-05T17:35:39;29.70;;;17.60;;
10890;SDS011;5498;50.928;11.598;2022-12-05T17:38:42;25.33;;;14.33;;
10890;SDS011;5498;50.928;11.598;2022-12-05T17:41:46;24.50;;;13.70;;
10890;SDS011;5498;50.928;11.598;2022-12-05T17:44:48;26.27;;;12.73;;
10890;SDS011;5498;50.928;11.598;2022-12-05T17:47:53;23.77;;;13.00;;
10890;SDS011;5498;50.928;11.598;2022-12-05T17:50:55;26.27;;;14.67;;
10890;SDS011;5498;50.928;11.598;2022-12-05T17:53:57;32.23;;;16.77;;
10890;SDS011;5498;50.928;11.598;2022-12-05T17:57:03;25.97;;;15.33;;
10890;SDS011;5498;50.928;11.598;2022-12-05T18:00:05;28.57;;;15.77;;
10890;SDS011;5498;50.928;11.598;2022-12-05T18:03:09;32.23;;;14.97;;
10890;SDS011;5498;50.928;11.598;2022-12-05T18:06:15;28.13;;;14.93;;
10890;SDS011;5498;50.928;11.598;2022-12-05T18:09:17;32.97;;;17.87;;
10890;SDS011;5498;50.928;11.598;2022-12-05T18:12:21;38.83;;;18.30;;
10890;SDS011;5498;50.928;11.598;2022-12-05T18:15:23;29.17;;;18.03;;
10890;SDS011;5498;50.928;11.598;2022-12-05T18:18:25;27.77;;;16.07;;
10890;SDS011;5498;50.928;11.598;2022-12-05T18:21:28;28.90;;;16.37;;
10890;SDS011;5498;50.928;11.598;2022-12-05T18:24:30;22.27;;;15.23;;
10890;SDS011;5498;50.928;11.598;2022-12-05T18:27:34;25.93;;;15.53;;
10890;SDS011;5498;50.928;11.598;2022-12-05T18:30:37;27.23;;;14.53;;
10890;SDS011;5498;50.928;11.598;2022-12-05T18:33:41;35.50;;;15.07;;
10890;SDS011;5498;50.928;11.598;2022-12-05T18:36:44;26.27;;;16.40;;
10890;SDS011;5498;50.928;11.598;2022-12-05T18:39:46;30.10;;;16.33;;